<?xml version='1.0' encoding='utf-8'?>
<gpx xmlns="http://www.topografix.com/GPX/1/1" xmlns:xsi="http://www.w3.org/2001/XMLSchema-instance" version="v1.1.5" creator="iTravel Tech Inc. - http://www.itravel-tech.com" xsi:schemaLocation="http://www.topografix.com/GPX/1/1 http://www.topografix.com/GPX/1/1/gpx.xsd http://www.topografix.com/GPX/gpx_overlay/0/3 http://www.topografix.com/GPX/gpx_overlay/0/3/gpx_overlay.xsd http://www.topografix.com/GPX/gpx_modified/0/1 http://www.topografix.com/GPX/gpx_modified/0/1/gpx_modified.xsd">
<trk>
<name>Holux2011/10/10_10:22</name>
<trkseg>
<trkpt lat="44.727032" lon="33.840244">
<ele>133.0</ele>
<time>2011-10-10T07:22:37Z</time>
<desc>lat.=44.727032, lon.=33.840244, Alt.=119.032288m. Speed=3.096000m/h.</desc>
<speed>0.860000</speed>
</trkpt>
<trkpt lat="44.727474" lon="33.840630">
<ele>132.6</ele>
<time>2011-10-10T07:23:02Z</time>
<desc>lat.=44.727474, lon.=33.840630, Alt.=92.172913m. Speed=4.644000m/h.</desc>
<speed>1.290000</speed>
</trkpt>
<trkpt lat="44.727161" lon="33.840076">
<ele>133.0</ele>
<time>2011-10-10T07:25:07Z</time>
<desc>lat.=44.727161, lon.=33.840076, Alt.=105.225647m. Speed=0.180000m/h.</desc>
<speed>0.050000</speed>
</trkpt>
<trkpt lat="44.727165" lon="33.840420">
<ele>132.6</ele>
<time>2011-10-10T07:39:42Z</time>
<desc>lat.=44.727165, lon.=33.840420, Alt.=118.731506m. Speed=4.248000m/h.</desc>
<speed>1.180000</speed>
</trkpt>
<trkpt lat="44.728020" lon="33.841545">
<ele>135.0</ele>
<time>2011-10-10T07:40:27Z</time>
<desc>lat.=44.728020, lon.=33.841545, Alt.=117.688538m. Speed=9.432000m/h.</desc>
<speed>2.620000</speed>
</trkpt>
<trkpt lat="44.728516" lon="33.844402">
<ele>139.0</ele>
<time>2011-10-10T07:41:32Z</time>
<desc>lat.=44.728516, lon.=33.844402, Alt.=129.912231m. Speed=11.484000m/h.</desc>
<speed>3.190000</speed>
</trkpt>
<trkpt lat="44.728321" lon="33.845688">
<ele>141.5</ele>
<time>2011-10-10T07:42:02Z</time>
<desc>lat.=44.728321, lon.=33.845688, Alt.=131.611450m. Speed=14.508000m/h.</desc>
<speed>4.030000</speed>
</trkpt>
<trkpt lat="44.728577" lon="33.846798">
<ele>145.0</ele>
<time>2011-10-10T07:42:32Z</time>
<desc>lat.=44.728577, lon.=33.846798, Alt.=132.142700m. Speed=5.544000m/h.</desc>
<speed>1.540000</speed>
</trkpt>
<trkpt lat="44.734390" lon="33.847599">
<ele>141.7</ele>
<time>2011-10-10T07:50:02Z</time>
<desc>lat.=44.734390, lon.=33.847599, Alt.=138.681763m. Speed=10.080000m/h.</desc>
<speed>2.800000</speed>
</trkpt>
<trkpt lat="44.734589" lon="33.847492">
<ele>142.6</ele>
<time>2011-10-10T07:50:07Z</time>
<desc>lat.=44.734589, lon.=33.847492, Alt.=139.509888m. Speed=21.528000m/h.</desc>
<speed>5.980000</speed>
</trkpt>
<trkpt lat="44.734695" lon="33.846458">
<ele>140.1</ele>
<time>2011-10-10T07:50:22Z</time>
<desc>lat.=44.734695, lon.=33.846458, Alt.=133.912231m. Speed=14.004000m/h.</desc>
<speed>3.890000</speed>
</trkpt>
<trkpt lat="44.738091" lon="33.836536">
<ele>132.8</ele>
<time>2011-10-10T07:52:47Z</time>
<desc>lat.=44.738091, lon.=33.836536, Alt.=125.571350m. Speed=4.104000m/h.</desc>
<speed>1.140000</speed>
</trkpt>
<trkpt lat="44.730408" lon="33.822910">
<ele>128.4</ele>
<time>2011-10-10T07:55:47Z</time>
<desc>lat.=44.730408, lon.=33.822910, Alt.=118.407288m. Speed=20.988001m/h.</desc>
<speed>5.830000</speed>
</trkpt>
<trkpt lat="44.719959" lon="33.808296">
<ele>114.5</ele>
<time>2011-10-10T07:59:22Z</time>
<desc>lat.=44.719959, lon.=33.808296, Alt.=95.850647m. Speed=15.768000m/h.</desc>
<speed>4.380000</speed>
</trkpt>
<trkpt lat="44.714924" lon="33.805290">
<ele>106.7</ele>
<time>2011-10-10T08:01:22Z</time>
<desc>lat.=44.714924, lon.=33.805290, Alt.=96.479553m. Speed=20.591999m/h.</desc>
<speed>5.720000</speed>
</trkpt>
<trkpt lat="44.714016" lon="33.805202">
<ele>110.0</ele>
<time>2011-10-10T08:01:42Z</time>
<desc>lat.=44.714016, lon.=33.805202, Alt.=99.559631m. Speed=20.052000m/h.</desc>
<speed>5.570000</speed>
</trkpt>
<trkpt lat="44.706341" lon="33.800797">
<ele>119.3</ele>
<time>2011-10-10T08:04:07Z</time>
<desc>lat.=44.706341, lon.=33.800797, Alt.=111.766663m. Speed=21.888000m/h.</desc>
<speed>6.080000</speed>
</trkpt>
<trkpt lat="44.704685" lon="33.800194">
<ele>123.2</ele>
<time>2011-10-10T08:04:42Z</time>
<desc>lat.=44.704685, lon.=33.800194, Alt.=114.294006m. Speed=21.492001m/h.</desc>
<speed>5.970000</speed>
</trkpt>
<trkpt lat="44.702896" lon="33.798439">
<ele>124.5</ele>
<time>2011-10-10T08:05:22Z</time>
<desc>lat.=44.702896, lon.=33.798439, Alt.=117.225647m. Speed=24.552000m/h.</desc>
<speed>6.820000</speed>
</trkpt>
<trkpt lat="44.700500" lon="33.795643">
<ele>122.6</ele>
<time>2011-10-10T08:06:17Z</time>
<desc>lat.=44.700500, lon.=33.795643, Alt.=111.215881m. Speed=29.232000m/h.</desc>
<speed>8.120000</speed>
</trkpt>
<trkpt lat="44.699997" lon="33.794788">
<ele>120.4</ele>
<time>2011-10-10T08:06:27Z</time>
<desc>lat.=44.699997, lon.=33.794788, Alt.=106.434631m. Speed=32.400002m/h.</desc>
<speed>9.000000</speed>
</trkpt>
<trkpt lat="44.699829" lon="33.793819">
<ele>117.5</ele>
<time>2011-10-10T08:06:37Z</time>
<desc>lat.=44.699829, lon.=33.793819, Alt.=102.704163m. Speed=27.719999m/h.</desc>
<speed>7.700000</speed>
</trkpt>
<trkpt lat="44.696945" lon="33.790470">
<ele>114.8</ele>
<time>2011-10-10T08:07:32Z</time>
<desc>lat.=44.696945, lon.=33.790470, Alt.=104.651428m. Speed=15.264000m/h.</desc>
<speed>4.240000</speed>
</trkpt>
<trkpt lat="44.686108" lon="33.792461">
<ele>109.4</ele>
<time>2011-10-10T08:14:07Z</time>
<desc>lat.=44.686108, lon.=33.792461, Alt.=105.838928m. Speed=21.312000m/h.</desc>
<speed>5.920000</speed>
</trkpt>
<trkpt lat="44.668861" lon="33.791561">
<ele>130.5</ele>
<time>2011-10-10T08:19:27Z</time>
<desc>lat.=44.668861, lon.=33.791561, Alt.=125.936584m. Speed=9.108000m/h.</desc>
<speed>2.530000</speed>
</trkpt>
<trkpt lat="44.664490" lon="33.790531">
<ele>136.2</ele>
<time>2011-10-10T08:22:47Z</time>
<desc>lat.=44.664490, lon.=33.790531, Alt.=126.835022m. Speed=24.516001m/h.</desc>
<speed>6.810000</speed>
</trkpt>
<trkpt lat="44.663544" lon="33.790489">
<ele>133.3</ele>
<time>2011-10-10T08:23:02Z</time>
<desc>lat.=44.663544, lon.=33.790489, Alt.=125.137756m. Speed=24.912001m/h.</desc>
<speed>6.920000</speed>
</trkpt>
<trkpt lat="44.662952" lon="33.790829">
<ele>128.7</ele>
<time>2011-10-10T08:23:12Z</time>
<desc>lat.=44.662952, lon.=33.790829, Alt.=123.739319m. Speed=27.576000m/h.</desc>
<speed>7.660000</speed>
</trkpt>
<trkpt lat="44.662704" lon="33.791191">
<ele>123.4</ele>
<time>2011-10-10T08:23:17Z</time>
<desc>lat.=44.662704, lon.=33.791191, Alt.=122.090881m. Speed=30.600000m/h.</desc>
<speed>8.500000</speed>
</trkpt>
<trkpt lat="44.662525" lon="33.791710">
<ele>119.4</ele>
<time>2011-10-10T08:23:22Z</time>
<desc>lat.=44.662525, lon.=33.791710, Alt.=119.991272m. Speed=34.740002m/h.</desc>
<speed>9.650000</speed>
</trkpt>
<trkpt lat="44.662342" lon="33.794041">
<ele>115.8</ele>
<time>2011-10-10T08:23:37Z</time>
<desc>lat.=44.662342, lon.=33.794041, Alt.=113.278381m. Speed=50.759998m/h.</desc>
<speed>14.100000</speed>
</trkpt>
<trkpt lat="44.661293" lon="33.795990">
<ele>111.5</ele>
<time>2011-10-10T08:23:57Z</time>
<desc>lat.=44.661293, lon.=33.795990, Alt.=106.106506m. Speed=0.504000m/h.</desc>
<speed>0.140000</speed>
</trkpt>
<trkpt lat="44.661190" lon="33.794975">
<ele>110.5</ele>
<time>2011-10-10T08:24:52Z</time>
<desc>lat.=44.661190, lon.=33.794975, Alt.=106.866272m. Speed=20.700001m/h.</desc>
<speed>5.750000</speed>
</trkpt>
<trkpt lat="44.661491" lon="33.792397">
<ele>107.8</ele>
<time>2011-10-10T08:25:32Z</time>
<desc>lat.=44.661491, lon.=33.792397, Alt.=102.495178m. Speed=6.588000m/h.</desc>
<speed>1.830000</speed>
</trkpt>
<trkpt lat="44.660282" lon="33.791775">
<ele>98.4</ele>
<time>2011-10-10T08:25:52Z</time>
<desc>lat.=44.660282, lon.=33.791775, Alt.=92.731506m. Speed=18.648001m/h.</desc>
<speed>5.180000</speed>
</trkpt>
<trkpt lat="44.660057" lon="33.792313">
<ele>98.8</ele>
<time>2011-10-10T08:26:07Z</time>
<desc>lat.=44.660057, lon.=33.792313, Alt.=93.032288m. Speed=12.420000m/h.</desc>
<speed>3.450000</speed>
</trkpt>
<trkpt lat="44.659916" lon="33.792313">
<ele>98.4</ele>
<time>2011-10-10T08:26:12Z</time>
<desc>lat.=44.659916, lon.=33.792313, Alt.=92.532288m. Speed=12.528000m/h.</desc>
<speed>3.480000</speed>
</trkpt>
<trkpt lat="44.657471" lon="33.791080">
<ele>94.6</ele>
<time>2011-10-10T08:27:22Z</time>
<desc>lat.=44.657471, lon.=33.791080, Alt.=85.561584m. Speed=18.180000m/h.</desc>
<speed>5.050000</speed>
</trkpt>
<trkpt lat="44.656868" lon="33.791061">
<ele>94.7</ele>
<time>2011-10-10T08:27:37Z</time>
<desc>lat.=44.656868, lon.=33.791061, Alt.=85.483459m. Speed=10.188000m/h.</desc>
<speed>2.830000</speed>
</trkpt>
<trkpt lat="44.655731" lon="33.794388">
<ele>96.1</ele>
<time>2011-10-10T08:30:12Z</time>
<desc>lat.=44.655731, lon.=33.794388, Alt.=90.100647m. Speed=13.752000m/h.</desc>
<speed>3.820000</speed>
</trkpt>
<trkpt lat="44.655472" lon="33.796883">
<ele>97.4</ele>
<time>2011-10-10T08:31:12Z</time>
<desc>lat.=44.655472, lon.=33.796883, Alt.=90.590881m. Speed=8.316000m/h.</desc>
<speed>2.310000</speed>
</trkpt>
<trkpt lat="44.655075" lon="33.797375">
<ele>97.6</ele>
<time>2011-10-10T08:31:32Z</time>
<desc>lat.=44.655075, lon.=33.797375, Alt.=91.542053m. Speed=14.076000m/h.</desc>
<speed>3.910000</speed>
</trkpt>
<trkpt lat="44.654438" lon="33.798977">
<ele>100.0</ele>
<time>2011-10-10T08:33:32Z</time>
<desc>lat.=44.654438, lon.=33.798977, Alt.=92.803772m. Speed=3.096000m/h.</desc>
<speed>0.860000</speed>
</trkpt>
<trkpt lat="44.653873" lon="33.798424">
<ele>113.6</ele>
<time>2011-10-10T08:38:22Z</time>
<desc>lat.=44.653873, lon.=33.798424, Alt.=95.202209m. Speed=0.108000m/h.</desc>
<speed>0.030000</speed>
</trkpt>
<trkpt lat="44.653748" lon="33.797985">
<ele>115.0</ele>
<time>2011-10-10T08:40:17Z</time>
<desc>lat.=44.653748, lon.=33.797985, Alt.=99.370178m. Speed=2.592000m/h.</desc>
<speed>0.720000</speed>
</trkpt>
<trkpt lat="44.653851" lon="33.800514">
<ele>126.8</ele>
<time>2011-10-10T08:42:02Z</time>
<desc>lat.=44.653851, lon.=33.800514, Alt.=117.389709m. Speed=6.444000m/h.</desc>
<speed>1.790000</speed>
</trkpt>
<trkpt lat="44.653381" lon="33.801411">
<ele>129.7</ele>
<time>2011-10-10T08:42:47Z</time>
<desc>lat.=44.653381, lon.=33.801411, Alt.=127.071350m. Speed=7.020000m/h.</desc>
<speed>1.950000</speed>
</trkpt>
<trkpt lat="44.652916" lon="33.801659">
<ele>133.6</ele>
<time>2011-10-10T08:43:12Z</time>
<desc>lat.=44.652916, lon.=33.801659, Alt.=132.189575m. Speed=6.120000m/h.</desc>
<speed>1.700000</speed>
</trkpt>
<trkpt lat="44.652184" lon="33.801590">
<ele>145.2</ele>
<time>2011-10-10T08:45:02Z</time>
<desc>lat.=44.652184, lon.=33.801590, Alt.=139.384888m. Speed=6.768000m/h.</desc>
<speed>1.880000</speed>
</trkpt>
<trkpt lat="44.651909" lon="33.801941">
<ele>140.9</ele>
<time>2011-10-10T08:46:42Z</time>
<desc>lat.=44.651909, lon.=33.801941, Alt.=139.884888m. Speed=0.108000m/h.</desc>
<speed>0.030000</speed>
</trkpt>
<trkpt lat="44.651085" lon="33.801865">
<ele>153.8</ele>
<time>2011-10-10T08:52:27Z</time>
<desc>lat.=44.651085, lon.=33.801865, Alt.=144.744263m. Speed=6.588000m/h.</desc>
<speed>1.830000</speed>
</trkpt>
<trkpt lat="44.648605" lon="33.802963">
<ele>184.2</ele>
<time>2011-10-10T08:54:52Z</time>
<desc>lat.=44.648605, lon.=33.802963, Alt.=173.361450m. Speed=7.128000m/h.</desc>
<speed>1.980000</speed>
</trkpt>
<trkpt lat="44.647465" lon="33.803150">
<ele>195.5</ele>
<time>2011-10-10T08:55:52Z</time>
<desc>lat.=44.647465, lon.=33.803150, Alt.=183.970825m. Speed=7.056000m/h.</desc>
<speed>1.960000</speed>
</trkpt>
<trkpt lat="44.646809" lon="33.803467">
<ele>202.3</ele>
<time>2011-10-10T08:56:32Z</time>
<desc>lat.=44.646809, lon.=33.803467, Alt.=190.716919m. Speed=6.300000m/h.</desc>
<speed>1.750000</speed>
</trkpt>
<trkpt lat="44.646400" lon="33.804291">
<ele>211.6</ele>
<time>2011-10-10T08:57:52Z</time>
<desc>lat.=44.646400, lon.=33.804291, Alt.=198.638794m. Speed=4.176000m/h.</desc>
<speed>1.160000</speed>
</trkpt>
<trkpt lat="44.645020" lon="33.804703">
<ele>225.3</ele>
<time>2011-10-10T09:05:12Z</time>
<desc>lat.=44.645020, lon.=33.804703, Alt.=212.392700m. Speed=8.784000m/h.</desc>
<speed>2.440000</speed>
</trkpt>
<trkpt lat="44.644241" lon="33.805443">
<ele>235.5</ele>
<time>2011-10-10T09:06:12Z</time>
<desc>lat.=44.644241, lon.=33.805443, Alt.=228.369263m. Speed=5.724000m/h.</desc>
<speed>1.590000</speed>
</trkpt>
<trkpt lat="44.643822" lon="33.805576">
<ele>238.6</ele>
<time>2011-10-10T09:06:37Z</time>
<desc>lat.=44.643822, lon.=33.805576, Alt.=231.744263m. Speed=6.840000m/h.</desc>
<speed>1.900000</speed>
</trkpt>
<trkpt lat="44.643063" lon="33.805363">
<ele>244.4</ele>
<time>2011-10-10T09:07:22Z</time>
<desc>lat.=44.643063, lon.=33.805363, Alt.=235.927856m. Speed=5.508000m/h.</desc>
<speed>1.530000</speed>
</trkpt>
<trkpt lat="44.642982" lon="33.804722">
<ele>241.2</ele>
<time>2011-10-10T09:11:37Z</time>
<desc>lat.=44.642982, lon.=33.804722, Alt.=227.154419m. Speed=6.984000m/h.</desc>
<speed>1.940000</speed>
</trkpt>
<trkpt lat="44.640785" lon="33.801399">
<ele>224.3</ele>
<time>2011-10-10T09:12:42Z</time>
<desc>lat.=44.640785, lon.=33.801399, Alt.=211.642700m. Speed=21.275999m/h.</desc>
<speed>5.910000</speed>
</trkpt>
<trkpt lat="44.640087" lon="33.799244">
<ele>210.2</ele>
<time>2011-10-10T09:13:37Z</time>
<desc>lat.=44.640087, lon.=33.799244, Alt.=197.072388m. Speed=30.204000m/h.</desc>
<speed>8.390000</speed>
</trkpt>
<trkpt lat="44.640083" lon="33.795795">
<ele>186.4</ele>
<time>2011-10-10T09:15:47Z</time>
<desc>lat.=44.640083, lon.=33.795795, Alt.=173.201294m. Speed=0.036000m/h.</desc>
<speed>0.010000</speed>
</trkpt>
<trkpt lat="44.641407" lon="33.794144">
<ele>172.7</ele>
<time>2011-10-10T09:18:32Z</time>
<desc>lat.=44.641407, lon.=33.794144, Alt.=158.509888m. Speed=7.128000m/h.</desc>
<speed>1.980000</speed>
</trkpt>
<trkpt lat="44.641373" lon="33.793518">
<ele>169.8</ele>
<time>2011-10-10T09:18:47Z</time>
<desc>lat.=44.641373, lon.=33.793518, Alt.=152.920044m. Speed=18.684000m/h.</desc>
<speed>5.190000</speed>
</trkpt>
<trkpt lat="44.640728" lon="33.791565">
<ele>155.4</ele>
<time>2011-10-10T09:20:37Z</time>
<desc>lat.=44.640728, lon.=33.791565, Alt.=143.150513m. Speed=13.824000m/h.</desc>
<speed>3.840000</speed>
</trkpt>
<trkpt lat="44.640587" lon="33.789150">
<ele>142.3</ele>
<time>2011-10-10T09:21:17Z</time>
<desc>lat.=44.640587, lon.=33.789150, Alt.=129.513794m. Speed=0.324000m/h.</desc>
<speed>0.090000</speed>
</trkpt>
<trkpt lat="44.640251" lon="33.789959">
<ele>144.2</ele>
<time>2011-10-10T09:22:02Z</time>
<desc>lat.=44.640251, lon.=33.789959, Alt.=135.920044m. Speed=8.712000m/h.</desc>
<speed>2.420000</speed>
</trkpt>
<trkpt lat="44.639950" lon="33.790222">
<ele>145.4</ele>
<time>2011-10-10T09:22:12Z</time>
<desc>lat.=44.639950, lon.=33.790222, Alt.=136.861450m. Speed=14.940000m/h.</desc>
<speed>4.150000</speed>
</trkpt>
<trkpt lat="44.637383" lon="33.791534">
<ele>157.4</ele>
<time>2011-10-10T09:23:37Z</time>
<desc>lat.=44.637383, lon.=33.791534, Alt.=147.474731m. Speed=12.924000m/h.</desc>
<speed>3.590000</speed>
</trkpt>
<trkpt lat="44.634995" lon="33.793251">
<ele>165.4</ele>
<time>2011-10-10T09:26:07Z</time>
<desc>lat.=44.634995, lon.=33.793251, Alt.=158.380981m. Speed=10.008000m/h.</desc>
<speed>2.780000</speed>
</trkpt>
<trkpt lat="44.633644" lon="33.794949">
<ele>174.0</ele>
<time>2011-10-10T09:27:07Z</time>
<desc>lat.=44.633644, lon.=33.794949, Alt.=162.548950m. Speed=9.000000m/h.</desc>
<speed>2.500000</speed>
</trkpt>
<trkpt lat="44.632271" lon="33.796223">
<ele>180.5</ele>
<time>2011-10-10T09:28:22Z</time>
<desc>lat.=44.632271, lon.=33.796223, Alt.=170.834106m. Speed=10.260000m/h.</desc>
<speed>2.850000</speed>
</trkpt>
<trkpt lat="44.627213" lon="33.798370">
<ele>226.2</ele>
<time>2011-10-10T09:34:47Z</time>
<desc>lat.=44.627213, lon.=33.798370, Alt.=213.388794m. Speed=0.504000m/h.</desc>
<speed>0.140000</speed>
</trkpt>
<trkpt lat="44.626472" lon="33.800465">
<ele>231.4</ele>
<time>2011-10-10T09:38:22Z</time>
<desc>lat.=44.626472, lon.=33.800465, Alt.=227.119263m. Speed=9.000000m/h.</desc>
<speed>2.500000</speed>
</trkpt>
<trkpt lat="44.626324" lon="33.801933">
<ele>241.9</ele>
<time>2011-10-10T09:39:12Z</time>
<desc>lat.=44.626324, lon.=33.801933, Alt.=224.869263m. Speed=6.372000m/h.</desc>
<speed>1.770000</speed>
</trkpt>
<trkpt lat="44.627102" lon="33.803879">
<ele>252.0</ele>
<time>2011-10-10T09:40:32Z</time>
<desc>lat.=44.627102, lon.=33.803879, Alt.=237.267700m. Speed=8.568000m/h.</desc>
<speed>2.380000</speed>
</trkpt>
<trkpt lat="44.628300" lon="33.808216">
<ele>260.1</ele>
<time>2011-10-10T09:42:42Z</time>
<desc>lat.=44.628300, lon.=33.808216, Alt.=241.357544m. Speed=17.243999m/h.</desc>
<speed>4.790000</speed>
</trkpt>
<trkpt lat="44.629028" lon="33.810165">
<ele>259.2</ele>
<time>2011-10-10T09:43:47Z</time>
<desc>lat.=44.629028, lon.=33.810165, Alt.=240.384888m. Speed=20.520000m/h.</desc>
<speed>5.700000</speed>
</trkpt>
<trkpt lat="44.629318" lon="33.810436">
<ele>261.7</ele>
<time>2011-10-10T09:43:57Z</time>
<desc>lat.=44.629318, lon.=33.810436, Alt.=242.205200m. Speed=10.296000m/h.</desc>
<speed>2.860000</speed>
</trkpt>
<trkpt lat="44.631573" lon="33.814587">
<ele>271.9</ele>
<time>2011-10-10T09:46:02Z</time>
<desc>lat.=44.631573, lon.=33.814587, Alt.=262.902588m. Speed=3.996000m/h.</desc>
<speed>1.110000</speed>
</trkpt>
<trkpt lat="44.632393" lon="33.815750">
<ele>276.9</ele>
<time>2011-10-10T09:47:12Z</time>
<desc>lat.=44.632393, lon.=33.815750, Alt.=265.926025m. Speed=0.252000m/h.</desc>
<speed>0.070000</speed>
</trkpt>
<trkpt lat="44.631413" lon="33.817154">
<ele>286.1</ele>
<time>2011-10-10T09:48:52Z</time>
<desc>lat.=44.631413, lon.=33.817154, Alt.=278.863525m. Speed=7.812000m/h.</desc>
<speed>2.170000</speed>
</trkpt>
<trkpt lat="44.628700" lon="33.819996">
<ele>316.4</ele>
<time>2011-10-10T09:52:22Z</time>
<desc>lat.=44.628700, lon.=33.819996, Alt.=315.597900m. Speed=6.768000m/h.</desc>
<speed>1.880000</speed>
</trkpt>
<trkpt lat="44.628094" lon="33.820435">
<ele>320.0</ele>
<time>2011-10-10T09:59:42Z</time>
<desc>lat.=44.628094, lon.=33.820435, Alt.=305.136963m. Speed=0.000000m/h.</desc>
<speed>0.000000</speed>
</trkpt>
<trkpt lat="44.627113" lon="33.821617">
<ele>331.9</ele>
<time>2011-10-10T10:06:42Z</time>
<desc>lat.=44.627113, lon.=33.821617, Alt.=329.707275m. Speed=6.732000m/h.</desc>
<speed>1.870000</speed>
</trkpt>
<trkpt lat="44.625641" lon="33.823051">
<ele>351.3</ele>
<time>2011-10-10T10:08:42Z</time>
<desc>lat.=44.625641, lon.=33.823051, Alt.=336.613525m. Speed=5.652000m/h.</desc>
<speed>1.570000</speed>
</trkpt>
<trkpt lat="44.625282" lon="33.822994">
<ele>354.1</ele>
<time>2011-10-10T10:09:02Z</time>
<desc>lat.=44.625282, lon.=33.822994, Alt.=338.613525m. Speed=6.912000m/h.</desc>
<speed>1.920000</speed>
</trkpt>
<trkpt lat="44.624813" lon="33.824455">
<ele>365.4</ele>
<time>2011-10-10T10:10:12Z</time>
<desc>lat.=44.624813, lon.=33.824455, Alt.=353.308838m. Speed=4.932000m/h.</desc>
<speed>1.370000</speed>
</trkpt>
<trkpt lat="44.624763" lon="33.825680">
<ele>373.0</ele>
<time>2011-10-10T10:11:02Z</time>
<desc>lat.=44.624763, lon.=33.825680, Alt.=358.566650m. Speed=3.060000m/h.</desc>
<speed>0.850000</speed>
</trkpt>
<trkpt lat="44.624123" lon="33.826084">
<ele>382.5</ele>
<time>2011-10-10T10:14:02Z</time>
<desc>lat.=44.624123, lon.=33.826084, Alt.=363.676025m. Speed=7.452000m/h.</desc>
<speed>2.070000</speed>
</trkpt>
<trkpt lat="44.623871" lon="33.826569">
<ele>387.1</ele>
<time>2011-10-10T10:14:37Z</time>
<desc>lat.=44.623871, lon.=33.826569, Alt.=367.019775m. Speed=0.036000m/h.</desc>
<speed>0.010000</speed>
</trkpt>
<trkpt lat="44.624386" lon="33.827393">
<ele>386.6</ele>
<time>2011-10-10T10:16:17Z</time>
<desc>lat.=44.624386, lon.=33.827393, Alt.=368.660400m. Speed=4.212000m/h.</desc>
<speed>1.170000</speed>
</trkpt>
<trkpt lat="44.624660" lon="33.828495">
<ele>390.2</ele>
<time>2011-10-10T10:17:07Z</time>
<desc>lat.=44.624660, lon.=33.828495, Alt.=381.027588m. Speed=3.816000m/h.</desc>
<speed>1.060000</speed>
</trkpt>
<trkpt lat="44.625271" lon="33.829964">
<ele>392.3</ele>
<time>2011-10-10T10:18:12Z</time>
<desc>lat.=44.625271, lon.=33.829964, Alt.=378.058838m. Speed=6.228000m/h.</desc>
<speed>1.730000</speed>
</trkpt>
<trkpt lat="44.625359" lon="33.833172">
<ele>410.3</ele>
<time>2011-10-10T10:20:47Z</time>
<desc>lat.=44.625359, lon.=33.833172, Alt.=401.707275m. Speed=4.572000m/h.</desc>
<speed>1.270000</speed>
</trkpt>
<trkpt lat="44.625076" lon="33.833710">
<ele>415.7</ele>
<time>2011-10-10T10:21:22Z</time>
<desc>lat.=44.625076, lon.=33.833710, Alt.=412.910400m. Speed=2.232000m/h.</desc>
<speed>0.620000</speed>
</trkpt>
<trkpt lat="44.625111" lon="33.834225">
<ele>417.4</ele>
<time>2011-10-10T10:24:12Z</time>
<desc>lat.=44.625111, lon.=33.834225, Alt.=407.965088m. Speed=4.392000m/h.</desc>
<speed>1.220000</speed>
</trkpt>
<trkpt lat="44.625710" lon="33.834904">
<ele>415.6</ele>
<time>2011-10-10T10:24:47Z</time>
<desc>lat.=44.625710, lon.=33.834904, Alt.=404.863525m. Speed=2.196000m/h.</desc>
<speed>0.610000</speed>
</trkpt>
<trkpt lat="44.627167" lon="33.835667">
<ele>408.9</ele>
<time>2011-10-10T10:25:47Z</time>
<desc>lat.=44.627167, lon.=33.835667, Alt.=402.394775m. Speed=9.144000m/h.</desc>
<speed>2.540000</speed>
</trkpt>
<trkpt lat="44.627987" lon="33.836784">
<ele>410.5</ele>
<time>2011-10-10T10:26:27Z</time>
<desc>lat.=44.627987, lon.=33.836784, Alt.=406.277588m. Speed=7.560000m/h.</desc>
<speed>2.100000</speed>
</trkpt>
<trkpt lat="44.627815" lon="33.837952">
<ele>413.3</ele>
<time>2011-10-10T10:27:12Z</time>
<desc>lat.=44.627815, lon.=33.837952, Alt.=414.910400m. Speed=7.056000m/h.</desc>
<speed>1.960000</speed>
</trkpt>
<trkpt lat="44.626984" lon="33.838734">
<ele>425.6</ele>
<time>2011-10-10T10:28:47Z</time>
<desc>lat.=44.626984, lon.=33.838734, Alt.=417.394775m. Speed=4.500000m/h.</desc>
<speed>1.250000</speed>
</trkpt>
<trkpt lat="44.626656" lon="33.839554">
<ele>434.3</ele>
<time>2011-10-10T10:29:52Z</time>
<desc>lat.=44.626656, lon.=33.839554, Alt.=425.746338m. Speed=6.300000m/h.</desc>
<speed>1.750000</speed>
</trkpt>
<trkpt lat="44.627735" lon="33.841133">
<ele>436.6</ele>
<time>2011-10-10T10:31:12Z</time>
<desc>lat.=44.627735, lon.=33.841133, Alt.=436.215088m. Speed=8.064000m/h.</desc>
<speed>2.240000</speed>
</trkpt>
<trkpt lat="44.628242" lon="33.842175">
<ele>438.2</ele>
<time>2011-10-10T10:33:32Z</time>
<desc>lat.=44.628242, lon.=33.842175, Alt.=422.605713m. Speed=0.324000m/h.</desc>
<speed>0.090000</speed>
</trkpt>
<trkpt lat="44.629402" lon="33.842670">
<ele>435.1</ele>
<time>2011-10-10T10:34:37Z</time>
<desc>lat.=44.629402, lon.=33.842670, Alt.=424.816650m. Speed=8.676000m/h.</desc>
<speed>2.410000</speed>
</trkpt>
<trkpt lat="44.630146" lon="33.841984">
<ele>427.1</ele>
<time>2011-10-10T10:35:07Z</time>
<desc>lat.=44.630146, lon.=33.841984, Alt.=415.058838m. Speed=13.104000m/h.</desc>
<speed>3.640000</speed>
</trkpt>
<trkpt lat="44.630672" lon="33.839397">
<ele>405.0</ele>
<time>2011-10-10T10:36:47Z</time>
<desc>lat.=44.630672, lon.=33.839397, Alt.=391.160400m. Speed=0.468000m/h.</desc>
<speed>0.130000</speed>
</trkpt>
<trkpt lat="44.631153" lon="33.838806">
<ele>401.8</ele>
<time>2011-10-10T10:37:17Z</time>
<desc>lat.=44.631153, lon.=33.838806, Alt.=397.418213m. Speed=8.388000m/h.</desc>
<speed>2.330000</speed>
</trkpt>
<trkpt lat="44.631248" lon="33.837399">
<ele>390.2</ele>
<time>2011-10-10T10:38:22Z</time>
<desc>lat.=44.631248, lon.=33.837399, Alt.=377.683838m. Speed=0.396000m/h.</desc>
<speed>0.110000</speed>
</trkpt>
<trkpt lat="44.630692" lon="33.838310">
<ele>393.9</ele>
<time>2011-10-10T10:40:27Z</time>
<desc>lat.=44.630692, lon.=33.838310, Alt.=379.433838m. Speed=0.684000m/h.</desc>
<speed>0.190000</speed>
</trkpt>
<trkpt lat="44.630623" lon="33.839565">
<ele>406.7</ele>
<time>2011-10-10T10:46:42Z</time>
<desc>lat.=44.630623, lon.=33.839565, Alt.=387.543213m. Speed=1.692000m/h.</desc>
<speed>0.470000</speed>
</trkpt>
<trkpt lat="44.629448" lon="33.839699">
<ele>405.0</ele>
<time>2011-10-10T10:49:22Z</time>
<desc>lat.=44.629448, lon.=33.839699, Alt.=389.316650m. Speed=3.132000m/h.</desc>
<speed>0.870000</speed>
</trkpt>
<trkpt lat="44.629261" lon="33.839355">
<ele>402.6</ele>
<time>2011-10-10T10:50:17Z</time>
<desc>lat.=44.629261, lon.=33.839355, Alt.=389.371338m. Speed=3.132000m/h.</desc>
<speed>0.870000</speed>
</trkpt>
<trkpt lat="44.628174" lon="33.839146">
<ele>405.3</ele>
<time>2011-10-10T10:52:27Z</time>
<desc>lat.=44.628174, lon.=33.839146, Alt.=389.394775m. Speed=2.880000m/h.</desc>
<speed>0.800000</speed>
</trkpt>
<trkpt lat="44.628132" lon="33.838982">
<ele>404.8</ele>
<time>2011-10-10T10:52:47Z</time>
<desc>lat.=44.628132, lon.=33.838982, Alt.=393.129150m. Speed=1.872000m/h.</desc>
<speed>0.520000</speed>
</trkpt>
<trkpt lat="44.629589" lon="33.837994">
<ele>373.5</ele>
<time>2011-10-10T10:57:12Z</time>
<desc>lat.=44.629589, lon.=33.837994, Alt.=377.730713m. Speed=9.864000m/h.</desc>
<speed>2.740000</speed>
</trkpt>
<trkpt lat="44.630043" lon="33.836773">
<ele>362.1</ele>
<time>2011-10-10T10:58:37Z</time>
<desc>lat.=44.630043, lon.=33.836773, Alt.=371.980713m. Speed=3.312000m/h.</desc>
<speed>0.920000</speed>
</trkpt>
<trkpt lat="44.630341" lon="33.836624">
<ele>355.3</ele>
<time>2011-10-10T10:59:12Z</time>
<desc>lat.=44.630341, lon.=33.836624, Alt.=365.480713m. Speed=0.180000m/h.</desc>
<speed>0.050000</speed>
</trkpt>
<trkpt lat="44.630573" lon="33.835957">
<ele>346.4</ele>
<time>2011-10-10T11:00:52Z</time>
<desc>lat.=44.630573, lon.=33.835957, Alt.=360.949463m. Speed=4.104000m/h.</desc>
<speed>1.140000</speed>
</trkpt>
<trkpt lat="44.631310" lon="33.834919">
<ele>326.8</ele>
<time>2011-10-10T11:01:27Z</time>
<desc>lat.=44.631310, lon.=33.834919, Alt.=356.496338m. Speed=6.048000m/h.</desc>
<speed>1.680000</speed>
</trkpt>
<trkpt lat="44.632038" lon="33.832573">
<ele>305.0</ele>
<time>2011-10-10T11:05:27Z</time>
<desc>lat.=44.632038, lon.=33.832573, Alt.=362.269775m. Speed=1.152000m/h.</desc>
<speed>0.320000</speed>
</trkpt>
<trkpt lat="44.632523" lon="33.832237">
<ele>276.6</ele>
<time>2011-10-10T11:06:22Z</time>
<desc>lat.=44.632523, lon.=33.832237, Alt.=361.215088m. Speed=0.396000m/h.</desc>
<speed>0.110000</speed>
</trkpt>
<trkpt lat="44.632492" lon="33.832035">
<ele>279.6</ele>
<time>2011-10-10T11:07:37Z</time>
<desc>lat.=44.632492, lon.=33.832035, Alt.=359.926025m. Speed=0.036000m/h.</desc>
<speed>0.010000</speed>
</trkpt>
<trkpt lat="44.632679" lon="33.832317">
<ele>267.1</ele>
<time>2011-10-10T11:09:02Z</time>
<desc>lat.=44.632679, lon.=33.832317, Alt.=359.121338m. Speed=0.720000m/h.</desc>
<speed>0.200000</speed>
</trkpt>
<trkpt lat="44.632431" lon="33.831917">
<ele>283.9</ele>
<time>2011-10-10T11:10:22Z</time>
<desc>lat.=44.632431, lon.=33.831917, Alt.=357.129150m. Speed=1.080000m/h.</desc>
<speed>0.300000</speed>
</trkpt>
<trkpt lat="44.632584" lon="33.832001">
<ele>273.6</ele>
<time>2011-10-10T11:11:02Z</time>
<desc>lat.=44.632584, lon.=33.832001, Alt.=355.308838m. Speed=1.224000m/h.</desc>
<speed>0.340000</speed>
</trkpt>
<trkpt lat="44.632721" lon="33.831821">
<ele>265.9</ele>
<time>2011-10-10T11:11:22Z</time>
<desc>lat.=44.632721, lon.=33.831821, Alt.=353.777588m. Speed=1.800000m/h.</desc>
<speed>0.500000</speed>
</trkpt>
<trkpt lat="44.632950" lon="33.832096">
<ele>255.2</ele>
<time>2011-10-10T11:11:57Z</time>
<desc>lat.=44.632950, lon.=33.832096, Alt.=351.207275m. Speed=0.144000m/h.</desc>
<speed>0.040000</speed>
</trkpt>
<trkpt lat="44.633038" lon="33.831814">
<ele>252.6</ele>
<time>2011-10-10T11:12:47Z</time>
<desc>lat.=44.633038, lon.=33.831814, Alt.=346.754150m. Speed=0.648000m/h.</desc>
<speed>0.180000</speed>
</trkpt>
<trkpt lat="44.632683" lon="33.832050">
<ele>267.7</ele>
<time>2011-10-10T11:13:12Z</time>
<desc>lat.=44.632683, lon.=33.832050, Alt.=341.308838m. Speed=3.528000m/h.</desc>
<speed>0.980000</speed>
</trkpt>
<trkpt lat="44.632324" lon="33.830868">
<ele>289.5</ele>
<time>2011-10-10T11:14:27Z</time>
<desc>lat.=44.632324, lon.=33.830868, Alt.=330.230713m. Speed=3.060000m/h.</desc>
<speed>0.850000</speed>
</trkpt>
<trkpt lat="44.631973" lon="33.830845">
<ele>309.2</ele>
<time>2011-10-10T11:14:47Z</time>
<desc>lat.=44.631973, lon.=33.830845, Alt.=330.660400m. Speed=1.692000m/h.</desc>
<speed>0.470000</speed>
</trkpt>
<trkpt lat="44.631973" lon="33.830612">
<ele>300.4</ele>
<time>2011-10-10T11:14:57Z</time>
<desc>lat.=44.631973, lon.=33.830612, Alt.=329.636963m. Speed=1.764000m/h.</desc>
<speed>0.490000</speed>
</trkpt>
<trkpt lat="44.631706" lon="33.830524">
<ele>303.7</ele>
<time>2011-10-10T11:15:07Z</time>
<desc>lat.=44.631706, lon.=33.830524, Alt.=329.551025m. Speed=2.412000m/h.</desc>
<speed>0.670000</speed>
</trkpt>
<trkpt lat="44.631615" lon="33.830151">
<ele>286.2</ele>
<time>2011-10-10T11:15:42Z</time>
<desc>lat.=44.631615, lon.=33.830151, Alt.=322.418213m. Speed=0.864000m/h.</desc>
<speed>0.240000</speed>
</trkpt>
<trkpt lat="44.631397" lon="33.830357">
<ele>301.3</ele>
<time>2011-10-10T11:16:12Z</time>
<desc>lat.=44.631397, lon.=33.830357, Alt.=315.621338m. Speed=1.260000m/h.</desc>
<speed>0.350000</speed>
</trkpt>
<trkpt lat="44.631176" lon="33.830296">
<ele>302.1</ele>
<time>2011-10-10T11:16:47Z</time>
<desc>lat.=44.631176, lon.=33.830296, Alt.=312.722900m. Speed=1.800000m/h.</desc>
<speed>0.500000</speed>
</trkpt>
<trkpt lat="44.630993" lon="33.830723">
<ele>305.7</ele>
<time>2011-10-10T11:20:47Z</time>
<desc>lat.=44.630993, lon.=33.830723, Alt.=310.676025m. Speed=2.196000m/h.</desc>
<speed>0.610000</speed>
</trkpt>
<trkpt lat="44.630962" lon="33.830421">
<ele>302.2</ele>
<time>2011-10-10T11:21:22Z</time>
<desc>lat.=44.630962, lon.=33.830421, Alt.=308.347900m. Speed=2.268000m/h.</desc>
<speed>0.630000</speed>
</trkpt>
<trkpt lat="44.630543" lon="33.830250">
<ele>296.4</ele>
<time>2011-10-10T11:21:37Z</time>
<desc>lat.=44.630543, lon.=33.830250, Alt.=307.238525m. Speed=3.132000m/h.</desc>
<speed>0.870000</speed>
</trkpt>
<trkpt lat="44.630669" lon="33.830322">
<ele>291.9</ele>
<time>2011-10-10T11:21:57Z</time>
<desc>lat.=44.630669, lon.=33.830322, Alt.=306.441650m. Speed=1.512000m/h.</desc>
<speed>0.420000</speed>
</trkpt>
<trkpt lat="44.630581" lon="33.829983">
<ele>287.8</ele>
<time>2011-10-10T11:22:07Z</time>
<desc>lat.=44.630581, lon.=33.829983, Alt.=299.816650m. Speed=2.160000m/h.</desc>
<speed>0.600000</speed>
</trkpt>
<trkpt lat="44.630676" lon="33.829945">
<ele>282.7</ele>
<time>2011-10-10T11:22:17Z</time>
<desc>lat.=44.630676, lon.=33.829945, Alt.=299.613525m. Speed=3.240000m/h.</desc>
<speed>0.900000</speed>
</trkpt>
<trkpt lat="44.630463" lon="33.830128">
<ele>296.8</ele>
<time>2011-10-10T11:22:32Z</time>
<desc>lat.=44.630463, lon.=33.830128, Alt.=299.551025m. Speed=2.268000m/h.</desc>
<speed>0.630000</speed>
</trkpt>
<trkpt lat="44.629585" lon="33.830051">
<ele>331.7</ele>
<time>2011-10-10T11:22:52Z</time>
<desc>lat.=44.629585, lon.=33.830051, Alt.=297.847900m. Speed=0.864000m/h.</desc>
<speed>0.240000</speed>
</trkpt>
<trkpt lat="44.629395" lon="33.829842">
<ele>333.9</ele>
<time>2011-10-10T11:23:32Z</time>
<desc>lat.=44.629395, lon.=33.829842, Alt.=295.426025m. Speed=4.284000m/h.</desc>
<speed>1.190000</speed>
</trkpt>
<trkpt lat="44.629524" lon="33.829670">
<ele>330.9</ele>
<time>2011-10-10T11:23:47Z</time>
<desc>lat.=44.629524, lon.=33.829670, Alt.=294.011963m. Speed=0.216000m/h.</desc>
<speed>0.060000</speed>
</trkpt>
<trkpt lat="44.628654" lon="33.829075">
<ele>361.0</ele>
<time>2011-10-10T11:24:22Z</time>
<desc>lat.=44.628654, lon.=33.829075, Alt.=292.746338m. Speed=12.492000m/h.</desc>
<speed>3.470000</speed>
</trkpt>
<trkpt lat="44.629799" lon="33.829525">
<ele>319.5</ele>
<time>2011-10-10T11:25:42Z</time>
<desc>lat.=44.629799, lon.=33.829525, Alt.=291.957275m. Speed=5.292000m/h.</desc>
<speed>1.470000</speed>
</trkpt>
<trkpt lat="44.629818" lon="33.829784">
<ele>318.9</ele>
<time>2011-10-10T11:25:47Z</time>
<desc>lat.=44.629818, lon.=33.829784, Alt.=294.199463m. Speed=5.976000m/h.</desc>
<speed>1.660000</speed>
</trkpt>
<trkpt lat="44.631016" lon="33.830563">
<ele>304.5</ele>
<time>2011-10-10T11:25:52Z</time>
<desc>lat.=44.631016, lon.=33.830563, Alt.=294.152588m. Speed=2.304000m/h.</desc>
<speed>0.640000</speed>
</trkpt>
<trkpt lat="44.631111" lon="33.830921">
<ele>311.7</ele>
<time>2011-10-10T11:26:37Z</time>
<desc>lat.=44.631111, lon.=33.830921, Alt.=277.285400m. Speed=3.852000m/h.</desc>
<speed>1.070000</speed>
</trkpt>
<trkpt lat="44.630970" lon="33.830620">
<ele>304.2</ele>
<time>2011-10-10T11:27:07Z</time>
<desc>lat.=44.630970, lon.=33.830620, Alt.=278.316650m. Speed=1.800000m/h.</desc>
<speed>0.500000</speed>
</trkpt>
<trkpt lat="44.631351" lon="33.830719">
<ele>312.1</ele>
<time>2011-10-10T11:27:47Z</time>
<desc>lat.=44.631351, lon.=33.830719, Alt.=281.746338m. Speed=0.468000m/h.</desc>
<speed>0.130000</speed>
</trkpt>
<trkpt lat="44.631393" lon="33.830414">
<ele>303.1</ele>
<time>2011-10-10T11:29:02Z</time>
<desc>lat.=44.631393, lon.=33.830414, Alt.=282.754150m. Speed=0.216000m/h.</desc>
<speed>0.060000</speed>
</trkpt>
<trkpt lat="44.631241" lon="33.827950">
<ele>330.4</ele>
<time>2011-10-10T11:29:25Z</time>
<desc>lat.=44.631241, lon.=33.827950, Alt.=253.638794m. Speed=0.432000m/h.</desc>
<speed>0.120000</speed>
</trkpt>
<trkpt lat="44.631706" lon="33.827904">
<ele>327.8</ele>
<time>2011-10-10T11:29:45Z</time>
<desc>lat.=44.631706, lon.=33.827904, Alt.=274.379150m. Speed=1.404000m/h.</desc>
<speed>0.390000</speed>
</trkpt>
<trkpt lat="44.631527" lon="33.827877">
<ele>332.0</ele>
<time>2011-10-10T11:29:55Z</time>
<desc>lat.=44.631527, lon.=33.827877, Alt.=275.793213m. Speed=0.864000m/h.</desc>
<speed>0.240000</speed>
</trkpt>
<trkpt lat="44.631401" lon="33.828175">
<ele>316.4</ele>
<time>2011-10-10T11:30:05Z</time>
<desc>lat.=44.631401, lon.=33.828175, Alt.=276.894775m. Speed=1.260000m/h.</desc>
<speed>0.350000</speed>
</trkpt>
<trkpt lat="44.631378" lon="33.828770">
<ele>287.6</ele>
<time>2011-10-10T11:30:20Z</time>
<desc>lat.=44.631378, lon.=33.828770, Alt.=278.707275m. Speed=1.908000m/h.</desc>
<speed>0.530000</speed>
</trkpt>
<trkpt lat="44.631523" lon="33.828857">
<ele>279.1</ele>
<time>2011-10-10T11:30:25Z</time>
<desc>lat.=44.631523, lon.=33.828857, Alt.=279.426025m. Speed=1.260000m/h.</desc>
<speed>0.350000</speed>
</trkpt>
<trkpt lat="44.631214" lon="33.829414">
<ele>272.2</ele>
<time>2011-10-10T11:30:35Z</time>
<desc>lat.=44.631214, lon.=33.829414, Alt.=281.558838m. Speed=2.052000m/h.</desc>
<speed>0.570000</speed>
</trkpt>
<trkpt lat="44.631168" lon="33.830051">
<ele>287.2</ele>
<time>2011-10-10T11:30:45Z</time>
<desc>lat.=44.631168, lon.=33.830051, Alt.=284.340088m. Speed=1.836000m/h.</desc>
<speed>0.510000</speed>
</trkpt>
<trkpt lat="44.631645" lon="33.830387">
<ele>298.9</ele>
<time>2011-10-10T11:31:35Z</time>
<desc>lat.=44.631645, lon.=33.830387, Alt.=286.183838m. Speed=0.792000m/h.</desc>
<speed>0.220000</speed>
</trkpt>
<trkpt lat="44.631638" lon="33.830597">
<ele>307.4</ele>
<time>2011-10-10T11:31:50Z</time>
<desc>lat.=44.631638, lon.=33.830597, Alt.=286.386963m. Speed=1.188000m/h.</desc>
<speed>0.330000</speed>
</trkpt>
<trkpt lat="44.631664" lon="33.830227">
<ele>290.9</ele>
<time>2011-10-10T11:32:35Z</time>
<desc>lat.=44.631664, lon.=33.830227, Alt.=287.832275m. Speed=1.080000m/h.</desc>
<speed>0.300000</speed>
</trkpt>
<trkpt lat="44.631859" lon="33.830109">
<ele>281.3</ele>
<time>2011-10-10T11:32:50Z</time>
<desc>lat.=44.631859, lon.=33.830109, Alt.=290.332275m. Speed=2.124000m/h.</desc>
<speed>0.590000</speed>
</trkpt>
<trkpt lat="44.631821" lon="33.830433">
<ele>298.3</ele>
<time>2011-10-10T11:33:15Z</time>
<desc>lat.=44.631821, lon.=33.830433, Alt.=292.652588m. Speed=0.864000m/h.</desc>
<speed>0.240000</speed>
</trkpt>
<trkpt lat="44.630257" lon="33.828815">
<ele>323.2</ele>
<time>2011-10-10T11:33:48Z</time>
<desc>lat.=44.630257, lon.=33.828815, Alt.=369.090088m. Speed=0.792000m/h.</desc>
<speed>0.220000</speed>
</trkpt>
<trkpt lat="44.630402" lon="33.829098">
<ele>303.3</ele>
<time>2011-10-10T11:33:53Z</time>
<desc>lat.=44.630402, lon.=33.829098, Alt.=351.465088m. Speed=1.188000m/h.</desc>
<speed>0.330000</speed>
</trkpt>
<trkpt lat="44.630054" lon="33.829159">
<ele>316.0</ele>
<time>2011-10-10T11:34:23Z</time>
<desc>lat.=44.630054, lon.=33.829159, Alt.=330.816650m. Speed=0.360000m/h.</desc>
<speed>0.100000</speed>
</trkpt>
<trkpt lat="44.629375" lon="33.829807">
<ele>335.0</ele>
<time>2011-10-10T11:35:23Z</time>
<desc>lat.=44.629375, lon.=33.829807, Alt.=319.668213m. Speed=2.088000m/h.</desc>
<speed>0.580000</speed>
</trkpt>
<trkpt lat="44.628902" lon="33.829819">
<ele>347.4</ele>
<time>2011-10-10T11:35:53Z</time>
<desc>lat.=44.628902, lon.=33.829819, Alt.=312.965088m. Speed=1.476000m/h.</desc>
<speed>0.410000</speed>
</trkpt>
<trkpt lat="44.628712" lon="33.830009">
<ele>350.4</ele>
<time>2011-10-10T11:36:03Z</time>
<desc>lat.=44.628712, lon.=33.830009, Alt.=310.980713m. Speed=0.936000m/h.</desc>
<speed>0.260000</speed>
</trkpt>
<trkpt lat="44.628780" lon="33.830139">
<ele>348.2</ele>
<time>2011-10-10T11:36:23Z</time>
<desc>lat.=44.628780, lon.=33.830139, Alt.=311.238525m. Speed=0.036000m/h.</desc>
<speed>0.010000</speed>
</trkpt>
<trkpt lat="44.628689" lon="33.829964">
<ele>351.2</ele>
<time>2011-10-10T11:36:53Z</time>
<desc>lat.=44.628689, lon.=33.829964, Alt.=310.097900m. Speed=1.008000m/h.</desc>
<speed>0.280000</speed>
</trkpt>
<trkpt lat="44.628284" lon="33.830162">
<ele>358.9</ele>
<time>2011-10-10T11:38:58Z</time>
<desc>lat.=44.628284, lon.=33.830162, Alt.=309.894775m. Speed=0.936000m/h.</desc>
<speed>0.260000</speed>
</trkpt>
<trkpt lat="44.628593" lon="33.829960">
<ele>353.5</ele>
<time>2011-10-10T11:39:28Z</time>
<desc>lat.=44.628593, lon.=33.829960, Alt.=316.418213m. Speed=1.008000m/h.</desc>
<speed>0.280000</speed>
</trkpt>
<trkpt lat="44.628735" lon="33.829998">
<ele>350.0</ele>
<time>2011-10-10T11:39:33Z</time>
<desc>lat.=44.628735, lon.=33.829998, Alt.=322.293213m. Speed=1.044000m/h.</desc>
<speed>0.290000</speed>
</trkpt>
<trkpt lat="44.628601" lon="33.830215">
<ele>351.8</ele>
<time>2011-10-10T11:40:38Z</time>
<desc>lat.=44.628601, lon.=33.830215, Alt.=331.043213m. Speed=0.216000m/h.</desc>
<speed>0.060000</speed>
</trkpt>
<trkpt lat="44.629795" lon="33.830147">
<ele>330.7</ele>
<time>2011-10-10T11:42:38Z</time>
<desc>lat.=44.629795, lon.=33.830147, Alt.=367.090088m. Speed=2.412000m/h.</desc>
<speed>0.670000</speed>
</trkpt>
<trkpt lat="44.629822" lon="33.829857">
<ele>318.8</ele>
<time>2011-10-10T11:42:53Z</time>
<desc>lat.=44.629822, lon.=33.829857, Alt.=368.933838m. Speed=1.224000m/h.</desc>
<speed>0.340000</speed>
</trkpt>
<trkpt lat="44.629608" lon="33.829845">
<ele>326.3</ele>
<time>2011-10-10T11:43:13Z</time>
<desc>lat.=44.629608, lon.=33.829845, Alt.=371.847900m. Speed=3.456000m/h.</desc>
<speed>0.960000</speed>
</trkpt>
<trkpt lat="44.629452" lon="33.829861">
<ele>331.7</ele>
<time>2011-10-10T11:43:28Z</time>
<desc>lat.=44.629452, lon.=33.829861, Alt.=374.035400m. Speed=1.908000m/h.</desc>
<speed>0.530000</speed>
</trkpt>
<trkpt lat="44.629475" lon="33.830181">
<ele>337.4</ele>
<time>2011-10-10T11:44:03Z</time>
<desc>lat.=44.629475, lon.=33.830181, Alt.=378.215088m. Speed=1.296000m/h.</desc>
<speed>0.360000</speed>
</trkpt>
<trkpt lat="44.629353" lon="33.830177">
<ele>339.1</ele>
<time>2011-10-10T11:44:28Z</time>
<desc>lat.=44.629353, lon.=33.830177, Alt.=380.980713m. Speed=1.008000m/h.</desc>
<speed>0.280000</speed>
</trkpt>
<trkpt lat="44.629799" lon="33.830299">
<ele>336.3</ele>
<time>2011-10-10T11:44:33Z</time>
<desc>lat.=44.629799, lon.=33.830299, Alt.=381.043213m. Speed=2.232000m/h.</desc>
<speed>0.620000</speed>
</trkpt>
<trkpt lat="44.630791" lon="33.830021">
<ele>284.0</ele>
<time>2011-10-10T11:44:48Z</time>
<desc>lat.=44.630791, lon.=33.830021, Alt.=382.324463m. Speed=2.376000m/h.</desc>
<speed>0.660000</speed>
</trkpt>
<trkpt lat="44.630768" lon="33.831169">
<ele>311.1</ele>
<time>2011-10-10T11:45:28Z</time>
<desc>lat.=44.630768, lon.=33.831169, Alt.=384.207275m. Speed=2.556000m/h.</desc>
<speed>0.710000</speed>
</trkpt>
<trkpt lat="44.630112" lon="33.831451">
<ele>319.6</ele>
<time>2011-10-10T11:48:23Z</time>
<desc>lat.=44.630112, lon.=33.831451, Alt.=377.722900m. Speed=0.108000m/h.</desc>
<speed>0.030000</speed>
</trkpt>
<trkpt lat="44.630253" lon="33.831459">
<ele>319.2</ele>
<time>2011-10-10T11:49:38Z</time>
<desc>lat.=44.630253, lon.=33.831459, Alt.=368.582275m. Speed=0.576000m/h.</desc>
<speed>0.160000</speed>
</trkpt>
<trkpt lat="44.630039" lon="33.831596">
<ele>325.0</ele>
<time>2011-10-10T11:50:48Z</time>
<desc>lat.=44.630039, lon.=33.831596, Alt.=359.613525m. Speed=0.072000m/h.</desc>
<speed>0.020000</speed>
</trkpt>
<trkpt lat="44.630165" lon="33.831867">
<ele>332.5</ele>
<time>2011-10-10T11:52:08Z</time>
<desc>lat.=44.630165, lon.=33.831867, Alt.=353.949463m. Speed=1.152000m/h.</desc>
<speed>0.320000</speed>
</trkpt>
<trkpt lat="44.630013" lon="33.831551">
<ele>324.7</ele>
<time>2011-10-10T11:54:23Z</time>
<desc>lat.=44.630013, lon.=33.831551, Alt.=323.285400m. Speed=1.656000m/h.</desc>
<speed>0.460000</speed>
</trkpt>
<trkpt lat="44.630253" lon="33.830925">
<ele>311.8</ele>
<time>2011-10-10T11:55:13Z</time>
<desc>lat.=44.630253, lon.=33.830925, Alt.=312.816650m. Speed=2.700000m/h.</desc>
<speed>0.750000</speed>
</trkpt>
<trkpt lat="44.630592" lon="33.830738">
<ele>297.2</ele>
<time>2011-10-10T11:55:48Z</time>
<desc>lat.=44.630592, lon.=33.830738, Alt.=313.472900m. Speed=3.492000m/h.</desc>
<speed>0.970000</speed>
</trkpt>
<trkpt lat="44.630531" lon="33.830528">
<ele>297.9</ele>
<time>2011-10-10T11:56:28Z</time>
<desc>lat.=44.630531, lon.=33.830528, Alt.=313.707275m. Speed=1.116000m/h.</desc>
<speed>0.310000</speed>
</trkpt>
<trkpt lat="44.630672" lon="33.830425">
<ele>292.6</ele>
<time>2011-10-10T11:56:48Z</time>
<desc>lat.=44.630672, lon.=33.830425, Alt.=312.496338m. Speed=1.080000m/h.</desc>
<speed>0.300000</speed>
</trkpt>
<trkpt lat="44.631084" lon="33.830536">
<ele>305.1</ele>
<time>2011-10-10T11:57:38Z</time>
<desc>lat.=44.631084, lon.=33.830536, Alt.=313.246338m. Speed=1.296000m/h.</desc>
<speed>0.360000</speed>
</trkpt>
<trkpt lat="44.630863" lon="33.830292">
<ele>297.2</ele>
<time>2011-10-10T11:57:53Z</time>
<desc>lat.=44.630863, lon.=33.830292, Alt.=312.886963m. Speed=7.524000m/h.</desc>
<speed>2.090000</speed>
</trkpt>
<trkpt lat="44.630646" lon="33.830406">
<ele>293.4</ele>
<time>2011-10-10T11:58:18Z</time>
<desc>lat.=44.630646, lon.=33.830406, Alt.=312.496338m. Speed=4.356000m/h.</desc>
<speed>1.210000</speed>
</trkpt>
<trkpt lat="44.630856" lon="33.830578">
<ele>299.5</ele>
<time>2011-10-10T11:58:38Z</time>
<desc>lat.=44.630856, lon.=33.830578, Alt.=312.551025m. Speed=2.268000m/h.</desc>
<speed>0.630000</speed>
</trkpt>
<trkpt lat="44.630634" lon="33.830467">
<ele>294.3</ele>
<time>2011-10-10T11:58:48Z</time>
<desc>lat.=44.630634, lon.=33.830467, Alt.=312.426025m. Speed=2.052000m/h.</desc>
<speed>0.570000</speed>
</trkpt>
<trkpt lat="44.630550" lon="33.830608">
<ele>297.5</ele>
<time>2011-10-10T11:59:18Z</time>
<desc>lat.=44.630550, lon.=33.830608, Alt.=312.340088m. Speed=1.512000m/h.</desc>
<speed>0.420000</speed>
</trkpt>
<trkpt lat="44.630787" lon="33.830467">
<ele>295.8</ele>
<time>2011-10-10T12:00:18Z</time>
<desc>lat.=44.630787, lon.=33.830467, Alt.=311.785400m. Speed=1.296000m/h.</desc>
<speed>0.360000</speed>
</trkpt>
<trkpt lat="44.630035" lon="33.830051">
<ele>318.2</ele>
<time>2011-10-10T12:01:23Z</time>
<desc>lat.=44.630035, lon.=33.830051, Alt.=309.847900m. Speed=9.360000m/h.</desc>
<speed>2.600000</speed>
</trkpt>
<trkpt lat="44.631187" lon="33.830956">
<ele>314.8</ele>
<time>2011-10-10T12:04:08Z</time>
<desc>lat.=44.631187, lon.=33.830956, Alt.=279.511963m. Speed=0.720000m/h.</desc>
<speed>0.200000</speed>
</trkpt>
<trkpt lat="44.631218" lon="33.830746">
<ele>311.3</ele>
<time>2011-10-10T12:06:53Z</time>
<desc>lat.=44.631218, lon.=33.830746, Alt.=272.433838m. Speed=0.468000m/h.</desc>
<speed>0.130000</speed>
</trkpt>
<trkpt lat="44.631012" lon="33.830822">
<ele>307.3</ele>
<time>2011-10-10T12:10:38Z</time>
<desc>lat.=44.631012, lon.=33.830822, Alt.=285.910400m. Speed=0.828000m/h.</desc>
<speed>0.230000</speed>
</trkpt>
<trkpt lat="44.631798" lon="33.830410">
<ele>297.8</ele>
<time>2011-10-10T12:15:28Z</time>
<desc>lat.=44.631798, lon.=33.830410, Alt.=293.676025m. Speed=3.096000m/h.</desc>
<speed>0.860000</speed>
</trkpt>
<trkpt lat="44.632305" lon="33.830387">
<ele>282.6</ele>
<time>2011-10-10T12:15:53Z</time>
<desc>lat.=44.632305, lon.=33.830387, Alt.=292.426025m. Speed=0.252000m/h.</desc>
<speed>0.070000</speed>
</trkpt>
<trkpt lat="44.632809" lon="33.831814">
<ele>261.4</ele>
<time>2011-10-10T12:17:48Z</time>
<desc>lat.=44.632809, lon.=33.831814, Alt.=291.605713m. Speed=0.612000m/h.</desc>
<speed>0.170000</speed>
</trkpt>
<trkpt lat="44.632866" lon="33.831402">
<ele>258.6</ele>
<time>2011-10-10T12:18:43Z</time>
<desc>lat.=44.632866, lon.=33.831402, Alt.=289.418213m. Speed=1.728000m/h.</desc>
<speed>0.480000</speed>
</trkpt>
<trkpt lat="44.633095" lon="33.831249">
<ele>247.3</ele>
<time>2011-10-10T12:19:08Z</time>
<desc>lat.=44.633095, lon.=33.831249, Alt.=288.816650m. Speed=1.404000m/h.</desc>
<speed>0.390000</speed>
</trkpt>
<trkpt lat="44.633080" lon="33.830578">
<ele>240.5</ele>
<time>2011-10-10T12:19:43Z</time>
<desc>lat.=44.633080, lon.=33.830578, Alt.=287.340088m. Speed=3.528000m/h.</desc>
<speed>0.980000</speed>
</trkpt>
<trkpt lat="44.633572" lon="33.830189">
<ele>219.8</ele>
<time>2011-10-10T12:21:33Z</time>
<desc>lat.=44.633572, lon.=33.830189, Alt.=272.582275m. Speed=1.116000m/h.</desc>
<speed>0.310000</speed>
</trkpt>
<trkpt lat="44.633755" lon="33.829731">
<ele>210.4</ele>
<time>2011-10-10T12:22:03Z</time>
<desc>lat.=44.633755, lon.=33.829731, Alt.=265.816650m. Speed=6.048000m/h.</desc>
<speed>1.680000</speed>
</trkpt>
<trkpt lat="44.634125" lon="33.829830">
<ele>207.1</ele>
<time>2011-10-10T12:22:23Z</time>
<desc>lat.=44.634125, lon.=33.829830, Alt.=264.386963m. Speed=1.404000m/h.</desc>
<speed>0.390000</speed>
</trkpt>
<trkpt lat="44.634708" lon="33.829342">
<ele>194.5</ele>
<time>2011-10-10T12:24:13Z</time>
<desc>lat.=44.634708, lon.=33.829342, Alt.=248.033325m. Speed=1.476000m/h.</desc>
<speed>0.410000</speed>
</trkpt>
<trkpt lat="44.634899" lon="33.828808">
<ele>191.6</ele>
<time>2011-10-10T12:24:38Z</time>
<desc>lat.=44.634899, lon.=33.828808, Alt.=249.548950m. Speed=4.824000m/h.</desc>
<speed>1.340000</speed>
</trkpt>
<trkpt lat="44.636059" lon="33.827953">
<ele>174.3</ele>
<time>2011-10-10T12:25:23Z</time>
<desc>lat.=44.636059, lon.=33.827953, Alt.=245.029419m. Speed=6.804000m/h.</desc>
<speed>1.890000</speed>
</trkpt>
<trkpt lat="44.636860" lon="33.827866">
<ele>163.3</ele>
<time>2011-10-10T12:25:43Z</time>
<desc>lat.=44.636860, lon.=33.827866, Alt.=223.384888m. Speed=20.016001m/h.</desc>
<speed>5.560000</speed>
</trkpt>
<trkpt lat="44.637295" lon="33.827579">
<ele>156.5</ele>
<time>2011-10-10T12:25:53Z</time>
<desc>lat.=44.637295, lon.=33.827579, Alt.=210.716919m. Speed=11.484000m/h.</desc>
<speed>3.190000</speed>
</trkpt>
<trkpt lat="44.638863" lon="33.828228">
<ele>139.5</ele>
<time>2011-10-10T12:26:58Z</time>
<desc>lat.=44.638863, lon.=33.828228, Alt.=181.486450m. Speed=0.144000m/h.</desc>
<speed>0.040000</speed>
</trkpt>
<trkpt lat="44.639259" lon="33.828114">
<ele>135.8</ele>
<time>2011-10-10T12:29:58Z</time>
<desc>lat.=44.639259, lon.=33.828114, Alt.=166.689575m. Speed=0.180000m/h.</desc>
<speed>0.050000</speed>
</trkpt>
<trkpt lat="44.639149" lon="33.828133">
<ele>136.7</ele>
<time>2011-10-10T12:31:38Z</time>
<desc>lat.=44.639149, lon.=33.828133, Alt.=166.052856m. Speed=0.540000m/h.</desc>
<speed>0.150000</speed>
</trkpt>
<trkpt lat="44.639294" lon="33.828308">
<ele>134.8</ele>
<time>2011-10-10T12:32:08Z</time>
<desc>lat.=44.639294, lon.=33.828308, Alt.=165.904419m. Speed=1.728000m/h.</desc>
<speed>0.480000</speed>
</trkpt>
<trkpt lat="44.639153" lon="33.828194">
<ele>136.5</ele>
<time>2011-10-10T12:33:48Z</time>
<desc>lat.=44.639153, lon.=33.828194, Alt.=166.158325m. Speed=0.648000m/h.</desc>
<speed>0.180000</speed>
</trkpt>
<trkpt lat="44.639206" lon="33.828354">
<ele>135.4</ele>
<time>2011-10-10T12:35:33Z</time>
<desc>lat.=44.639206, lon.=33.828354, Alt.=166.857544m. Speed=0.468000m/h.</desc>
<speed>0.130000</speed>
</trkpt>
<trkpt lat="44.639362" lon="33.828331">
<ele>134.1</ele>
<time>2011-10-10T12:35:53Z</time>
<desc>lat.=44.639362, lon.=33.828331, Alt.=166.798950m. Speed=1.296000m/h.</desc>
<speed>0.360000</speed>
</trkpt>
<trkpt lat="44.639179" lon="33.828217">
<ele>136.2</ele>
<time>2011-10-10T12:37:03Z</time>
<desc>lat.=44.639179, lon.=33.828217, Alt.=164.818481m. Speed=0.144000m/h.</desc>
<speed>0.040000</speed>
</trkpt>
<trkpt lat="44.639317" lon="33.828114">
<ele>135.2</ele>
<time>2011-10-10T12:39:03Z</time>
<desc>lat.=44.639317, lon.=33.828114, Alt.=163.158325m. Speed=0.756000m/h.</desc>
<speed>0.210000</speed>
</trkpt>
<trkpt lat="44.639317" lon="33.828335">
<ele>134.5</ele>
<time>2011-10-10T12:53:53Z</time>
<desc>lat.=44.639317, lon.=33.828335, Alt.=145.314575m. Speed=0.468000m/h.</desc>
<speed>0.130000</speed>
</trkpt>
<trkpt lat="44.640167" lon="33.828773">
<ele>126.4</ele>
<time>2011-10-10T12:54:53Z</time>
<desc>lat.=44.640167, lon.=33.828773, Alt.=137.041138m. Speed=4.968000m/h.</desc>
<speed>1.380000</speed>
</trkpt>
<trkpt lat="44.640186" lon="33.829315">
<ele>122.6</ele>
<time>2011-10-10T12:55:18Z</time>
<desc>lat.=44.640186, lon.=33.829315, Alt.=141.994263m. Speed=7.056000m/h.</desc>
<speed>1.960000</speed>
</trkpt>
<trkpt lat="44.639854" lon="33.830544">
<ele>121.4</ele>
<time>2011-10-10T12:55:38Z</time>
<desc>lat.=44.639854, lon.=33.830544, Alt.=149.599731m. Speed=19.980000m/h.</desc>
<speed>5.550000</speed>
</trkpt>
<trkpt lat="44.639896" lon="33.831238">
<ele>124.0</ele>
<time>2011-10-10T12:55:48Z</time>
<desc>lat.=44.639896, lon.=33.831238, Alt.=153.232544m. Speed=20.520000m/h.</desc>
<speed>5.700000</speed>
</trkpt>
<trkpt lat="44.640381" lon="33.832756">
<ele>121.6</ele>
<time>2011-10-10T12:56:13Z</time>
<desc>lat.=44.640381, lon.=33.832756, Alt.=152.041138m. Speed=10.728000m/h.</desc>
<speed>2.980000</speed>
</trkpt>
<trkpt lat="44.640984" lon="33.833900">
<ele>122.7</ele>
<time>2011-10-10T12:56:43Z</time>
<desc>lat.=44.640984, lon.=33.833900, Alt.=160.048950m. Speed=4.860000m/h.</desc>
<speed>1.350000</speed>
</trkpt>
<trkpt lat="44.641590" lon="33.832455">
<ele>122.6</ele>
<time>2011-10-10T12:57:33Z</time>
<desc>lat.=44.641590, lon.=33.832455, Alt.=155.209106m. Speed=1.764000m/h.</desc>
<speed>0.490000</speed>
</trkpt>
<trkpt lat="44.641880" lon="33.832642">
<ele>129.9</ele>
<time>2011-10-10T13:00:58Z</time>
<desc>lat.=44.641880, lon.=33.832642, Alt.=129.982544m. Speed=0.504000m/h.</desc>
<speed>0.140000</speed>
</trkpt>
<trkpt lat="44.641460" lon="33.833176">
<ele>125.3</ele>
<time>2011-10-10T13:01:48Z</time>
<desc>lat.=44.641460, lon.=33.833176, Alt.=157.705200m. Speed=6.552000m/h.</desc>
<speed>1.820000</speed>
</trkpt>
<trkpt lat="44.641640" lon="33.833305">
<ele>129.7</ele>
<time>2011-10-10T13:02:18Z</time>
<desc>lat.=44.641640, lon.=33.833305, Alt.=135.955200m. Speed=0.072000m/h.</desc>
<speed>0.020000</speed>
</trkpt>
<trkpt lat="44.642097" lon="33.831070">
<ele>124.8</ele>
<time>2011-10-10T13:03:48Z</time>
<desc>lat.=44.642097, lon.=33.831070, Alt.=127.561584m. Speed=11.556000m/h.</desc>
<speed>3.210000</speed>
</trkpt>
<trkpt lat="44.643017" lon="33.829746">
<ele>133.6</ele>
<time>2011-10-10T13:04:23Z</time>
<desc>lat.=44.643017, lon.=33.829746, Alt.=128.900513m. Speed=4.212000m/h.</desc>
<speed>1.170000</speed>
</trkpt>
<trkpt lat="44.642090" lon="33.831196">
<ele>124.7</ele>
<time>2011-10-10T13:05:13Z</time>
<desc>lat.=44.642090, lon.=33.831196, Alt.=122.799866m. Speed=3.960000m/h.</desc>
<speed>1.100000</speed>
</trkpt>
<trkpt lat="44.642147" lon="33.832188">
<ele>131.9</ele>
<time>2011-10-10T13:05:28Z</time>
<desc>lat.=44.642147, lon.=33.832188, Alt.=126.887756m. Speed=30.059999m/h.</desc>
<speed>8.350000</speed>
</trkpt>
<trkpt lat="44.641830" lon="33.833111">
<ele>131.5</ele>
<time>2011-10-10T13:05:43Z</time>
<desc>lat.=44.641830, lon.=33.833111, Alt.=126.555725m. Speed=0.684000m/h.</desc>
<speed>0.190000</speed>
</trkpt>
<trkpt lat="44.641701" lon="33.833092">
<ele>128.9</ele>
<time>2011-10-10T13:07:23Z</time>
<desc>lat.=44.641701, lon.=33.833092, Alt.=121.196350m. Speed=1.512000m/h.</desc>
<speed>0.420000</speed>
</trkpt>
<trkpt lat="44.641655" lon="33.833866">
<ele>130.5</ele>
<time>2011-10-10T13:08:03Z</time>
<desc>lat.=44.641655, lon.=33.833866, Alt.=124.725647m. Speed=5.184000m/h.</desc>
<speed>1.440000</speed>
</trkpt>
<trkpt lat="44.641609" lon="33.833401">
<ele>129.2</ele>
<time>2011-10-10T13:08:18Z</time>
<desc>lat.=44.641609, lon.=33.833401, Alt.=125.885803m. Speed=14.004000m/h.</desc>
<speed>3.890000</speed>
</trkpt>
<trkpt lat="44.641983" lon="33.832043">
<ele>126.6</ele>
<time>2011-10-10T13:15:43Z</time>
<desc>lat.=44.641983, lon.=33.832043, Alt.=129.400513m. Speed=28.368000m/h.</desc>
<speed>7.880000</speed>
</trkpt>
<trkpt lat="44.642231" lon="33.830372">
<ele>126.0</ele>
<time>2011-10-10T13:15:58Z</time>
<desc>lat.=44.642231, lon.=33.830372, Alt.=127.442444m. Speed=33.192001m/h.</desc>
<speed>9.220000</speed>
</trkpt>
<trkpt lat="44.643539" lon="33.827919">
<ele>130.5</ele>
<time>2011-10-10T13:20:43Z</time>
<desc>lat.=44.643539, lon.=33.827919, Alt.=129.334106m. Speed=0.036000m/h.</desc>
<speed>0.010000</speed>
</trkpt>
<trkpt lat="44.643883" lon="33.825924">
<ele>124.1</ele>
<time>2011-10-10T13:27:43Z</time>
<desc>lat.=44.643883, lon.=33.825924, Alt.=128.416138m. Speed=24.408001m/h.</desc>
<speed>6.780000</speed>
</trkpt>
<trkpt lat="44.644543" lon="33.824448">
<ele>126.0</ele>
<time>2011-10-10T13:28:03Z</time>
<desc>lat.=44.644543, lon.=33.824448, Alt.=127.948303m. Speed=23.760000m/h.</desc>
<speed>6.600000</speed>
</trkpt>
<trkpt lat="44.647045" lon="33.821209">
<ele>123.3</ele>
<time>2011-10-10T13:28:58Z</time>
<desc>lat.=44.647045, lon.=33.821209, Alt.=126.557678m. Speed=25.164000m/h.</desc>
<speed>6.990000</speed>
</trkpt>
<trkpt lat="44.648247" lon="33.818005">
<ele>125.6</ele>
<time>2011-10-10T13:29:43Z</time>
<desc>lat.=44.648247, lon.=33.818005, Alt.=130.025513m. Speed=22.823999m/h.</desc>
<speed>6.340000</speed>
</trkpt>
<trkpt lat="44.650082" lon="33.815495">
<ele>125.0</ele>
<time>2011-10-10T13:30:23Z</time>
<desc>lat.=44.650082, lon.=33.815495, Alt.=128.580200m. Speed=31.392000m/h.</desc>
<speed>8.720000</speed>
</trkpt>
<trkpt lat="44.651844" lon="33.813599">
<ele>117.6</ele>
<time>2011-10-10T13:30:53Z</time>
<desc>lat.=44.651844, lon.=33.813599, Alt.=123.432678m. Speed=25.452000m/h.</desc>
<speed>7.070000</speed>
</trkpt>
<trkpt lat="44.654011" lon="33.808880">
<ele>109.2</ele>
<time>2011-10-10T13:31:53Z</time>
<desc>lat.=44.654011, lon.=33.808880, Alt.=122.401428m. Speed=26.280001m/h.</desc>
<speed>7.300000</speed>
</trkpt>
<trkpt lat="44.656193" lon="33.805248">
<ele>110.0</ele>
<time>2011-10-10T13:32:43Z</time>
<desc>lat.=44.656193, lon.=33.805248, Alt.=113.602600m. Speed=26.604000m/h.</desc>
<speed>7.390000</speed>
</trkpt>
<trkpt lat="44.657116" lon="33.802845">
<ele>109.8</ele>
<time>2011-10-10T13:35:38Z</time>
<desc>lat.=44.657116, lon.=33.802845, Alt.=109.559631m. Speed=20.916000m/h.</desc>
<speed>5.810000</speed>
</trkpt>
<trkpt lat="44.658653" lon="33.801495">
<ele>111.4</ele>
<time>2011-10-10T13:36:13Z</time>
<desc>lat.=44.658653, lon.=33.801495, Alt.=112.165100m. Speed=20.268000m/h.</desc>
<speed>5.630000</speed>
</trkpt>
<trkpt lat="44.659966" lon="33.799141">
<ele>112.6</ele>
<time>2011-10-10T13:36:53Z</time>
<desc>lat.=44.659966, lon.=33.799141, Alt.=110.352600m. Speed=20.483999m/h.</desc>
<speed>5.690000</speed>
</trkpt>
<trkpt lat="44.661140" lon="33.796497">
<ele>112.0</ele>
<time>2011-10-10T13:37:38Z</time>
<desc>lat.=44.661140, lon.=33.796497, Alt.=111.469788m. Speed=18.900000m/h.</desc>
<speed>5.250000</speed>
</trkpt>
<trkpt lat="44.661270" lon="33.794296">
<ele>110.1</ele>
<time>2011-10-10T13:38:08Z</time>
<desc>lat.=44.661270, lon.=33.794296, Alt.=111.139709m. Speed=24.624001m/h.</desc>
<speed>6.840000</speed>
</trkpt>
<trkpt lat="44.662251" lon="33.788273">
<ele>102.1</ele>
<time>2011-10-10T13:39:08Z</time>
<desc>lat.=44.662251, lon.=33.788273, Alt.=96.899475m. Speed=31.032000m/h.</desc>
<speed>8.620000</speed>
</trkpt>
<trkpt lat="44.662312" lon="33.786236">
<ele>103.9</ele>
<time>2011-10-10T13:39:28Z</time>
<desc>lat.=44.662312, lon.=33.786236, Alt.=99.458069m. Speed=27.648001m/h.</desc>
<speed>7.680000</speed>
</trkpt>
<trkpt lat="44.662697" lon="33.783012">
<ele>101.1</ele>
<time>2011-10-10T13:40:03Z</time>
<desc>lat.=44.662697, lon.=33.783012, Alt.=97.532288m. Speed=25.452000m/h.</desc>
<speed>7.070000</speed>
</trkpt>
<trkpt lat="44.662415" lon="33.781780">
<ele>90.5</ele>
<time>2011-10-10T13:40:13Z</time>
<desc>lat.=44.662415, lon.=33.781780, Alt.=86.452209m. Speed=50.327999m/h.</desc>
<speed>13.980000</speed>
</trkpt>
<trkpt lat="44.662045" lon="33.781044">
<ele>89.2</ele>
<time>2011-10-10T13:40:18Z</time>
<desc>lat.=44.662045, lon.=33.781044, Alt.=81.307678m. Speed=49.787998m/h.</desc>
<speed>13.829999</speed>
</trkpt>
<trkpt lat="44.661503" lon="33.780628">
<ele>89.8</ele>
<time>2011-10-10T13:40:23Z</time>
<desc>lat.=44.661503, lon.=33.780628, Alt.=81.274475m. Speed=50.327999m/h.</desc>
<speed>13.980000</speed>
</trkpt>
<trkpt lat="44.659073" lon="33.780083">
<ele>93.8</ele>
<time>2011-10-10T13:40:58Z</time>
<desc>lat.=44.659073, lon.=33.780083, Alt.=89.161194m. Speed=8.640000m/h.</desc>
<speed>2.400000</speed>
</trkpt>
<trkpt lat="44.658489" lon="33.780636">
<ele>105.2</ele>
<time>2011-10-10T13:43:13Z</time>
<desc>lat.=44.658489, lon.=33.780636, Alt.=102.172913m. Speed=3.600000m/h.</desc>
<speed>1.000000</speed>
</trkpt>
<trkpt lat="44.658180" lon="33.781197">
<ele>103.3</ele>
<time>2011-10-10T13:44:08Z</time>
<desc>lat.=44.658180, lon.=33.781197, Alt.=109.946350m. Speed=0.828000m/h.</desc>
<speed>0.230000</speed>
</trkpt>
<trkpt lat="44.658314" lon="33.781330">
<ele>97.9</ele>
<time>2011-10-10T13:45:43Z</time>
<desc>lat.=44.658314, lon.=33.781330, Alt.=114.594788m. Speed=0.072000m/h.</desc>
<speed>0.020000</speed>
</trkpt>
<trkpt lat="44.658173" lon="33.781208">
<ele>103.0</ele>
<time>2011-10-10T13:47:43Z</time>
<desc>lat.=44.658173, lon.=33.781208, Alt.=109.776428m. Speed=0.072000m/h.</desc>
<speed>0.020000</speed>
</trkpt>
<trkpt lat="44.658241" lon="33.781010">
<ele>105.0</ele>
<time>2011-10-10T13:48:28Z</time>
<desc>lat.=44.658241, lon.=33.781010, Alt.=108.086975m. Speed=2.736000m/h.</desc>
<speed>0.760000</speed>
</trkpt>
<trkpt lat="44.659077" lon="33.780239">
<ele>92.0</ele>
<time>2011-10-10T13:50:03Z</time>
<desc>lat.=44.659077, lon.=33.780239, Alt.=90.001038m. Speed=3.852000m/h.</desc>
<speed>1.070000</speed>
</trkpt>
<trkpt lat="44.659027" lon="33.780128">
<ele>94.0</ele>
<time>2011-10-10T13:51:38Z</time>
<desc>lat.=44.659027, lon.=33.780128, Alt.=85.565491m. Speed=4.032000m/h.</desc>
<speed>1.120000</speed>
</trkpt>
<trkpt lat="44.655910" lon="33.781734">
<ele>99.4</ele>
<time>2011-10-10T13:52:58Z</time>
<desc>lat.=44.655910, lon.=33.781734, Alt.=81.305725m. Speed=19.152000m/h.</desc>
<speed>5.320000</speed>
</trkpt>
<trkpt lat="44.651958" lon="33.783249">
<ele>111.1</ele>
<time>2011-10-10T13:54:38Z</time>
<desc>lat.=44.651958, lon.=33.783249, Alt.=91.241272m. Speed=10.800000m/h.</desc>
<speed>3.000000</speed>
</trkpt>
<trkpt lat="44.649750" lon="33.784313">
<ele>118.5</ele>
<time>2011-10-10T13:59:08Z</time>
<desc>lat.=44.649750, lon.=33.784313, Alt.=104.917053m. Speed=7.128000m/h.</desc>
<speed>1.980000</speed>
</trkpt>
<trkpt lat="44.646748" lon="33.785126">
<ele>121.5</ele>
<time>2011-10-10T14:01:58Z</time>
<desc>lat.=44.646748, lon.=33.785126, Alt.=103.081116m. Speed=19.691999m/h.</desc>
<speed>5.470000</speed>
</trkpt>
<trkpt lat="44.644329" lon="33.785343">
<ele>126.5</ele>
<time>2011-10-10T14:02:53Z</time>
<desc>lat.=44.644329, lon.=33.785343, Alt.=106.184631m. Speed=6.768000m/h.</desc>
<speed>1.880000</speed>
</trkpt>
<trkpt lat="44.643665" lon="33.785038">
<ele>125.0</ele>
<time>2011-10-10T14:03:18Z</time>
<desc>lat.=44.643665, lon.=33.785038, Alt.=105.985413m. Speed=21.780001m/h.</desc>
<speed>6.050000</speed>
</trkpt>
<trkpt lat="44.642757" lon="33.783737">
<ele>120.6</ele>
<time>2011-10-10T14:04:23Z</time>
<desc>lat.=44.642757, lon.=33.783737, Alt.=106.686584m. Speed=2.196000m/h.</desc>
<speed>0.610000</speed>
</trkpt>
<trkpt lat="44.643063" lon="33.780746">
<ele>116.5</ele>
<time>2011-10-10T14:05:13Z</time>
<desc>lat.=44.643063, lon.=33.780746, Alt.=108.979553m. Speed=9.360000m/h.</desc>
<speed>2.600000</speed>
</trkpt>
<trkpt lat="44.641785" lon="33.780380">
<ele>122.3</ele>
<time>2011-10-10T14:05:58Z</time>
<desc>lat.=44.641785, lon.=33.780380, Alt.=115.590881m. Speed=14.436000m/h.</desc>
<speed>4.010000</speed>
</trkpt>
<trkpt lat="44.640713" lon="33.780357">
<ele>125.4</ele>
<time>2011-10-10T14:06:28Z</time>
<desc>lat.=44.640713, lon.=33.780357, Alt.=116.786194m. Speed=15.228000m/h.</desc>
<speed>4.230000</speed>
</trkpt>
<trkpt lat="44.639111" lon="33.779320">
<ele>130.5</ele>
<time>2011-10-10T14:07:18Z</time>
<desc>lat.=44.639111, lon.=33.779320, Alt.=122.887756m. Speed=15.840000m/h.</desc>
<speed>4.400000</speed>
</trkpt>
<trkpt lat="44.636379" lon="33.776482">
<ele>134.5</ele>
<time>2011-10-10T14:08:33Z</time>
<desc>lat.=44.636379, lon.=33.776482, Alt.=125.790100m. Speed=21.600000m/h.</desc>
<speed>6.000000</speed>
</trkpt>
<trkpt lat="44.635582" lon="33.775093">
<ele>137.9</ele>
<time>2011-10-10T14:08:58Z</time>
<desc>lat.=44.635582, lon.=33.775093, Alt.=128.486450m. Speed=17.243999m/h.</desc>
<speed>4.790000</speed>
</trkpt>
<trkpt lat="44.635227" lon="33.773323">
<ele>142.6</ele>
<time>2011-10-10T14:09:33Z</time>
<desc>lat.=44.635227, lon.=33.773323, Alt.=134.177856m. Speed=10.836000m/h.</desc>
<speed>3.010000</speed>
</trkpt>
<trkpt lat="44.635223" lon="33.769569">
<ele>147.2</ele>
<time>2011-10-10T14:11:28Z</time>
<desc>lat.=44.635223, lon.=33.769569, Alt.=140.197388m. Speed=19.152000m/h.</desc>
<speed>5.320000</speed>
</trkpt>
<trkpt lat="44.634048" lon="33.766376">
<ele>152.4</ele>
<time>2011-10-10T14:12:23Z</time>
<desc>lat.=44.634048, lon.=33.766376, Alt.=146.185669m. Speed=16.667999m/h.</desc>
<speed>4.630000</speed>
</trkpt>
<trkpt lat="44.633511" lon="33.765541">
<ele>153.6</ele>
<time>2011-10-10T14:12:43Z</time>
<desc>lat.=44.633511, lon.=33.765541, Alt.=149.873169m. Speed=13.464000m/h.</desc>
<speed>3.740000</speed>
</trkpt>
<trkpt lat="44.633354" lon="33.764984">
<ele>156.2</ele>
<time>2011-10-10T14:12:58Z</time>
<desc>lat.=44.633354, lon.=33.764984, Alt.=152.662231m. Speed=11.232000m/h.</desc>
<speed>3.120000</speed>
</trkpt>
<trkpt lat="44.633354" lon="33.764545">
<ele>158.2</ele>
<time>2011-10-10T14:13:08Z</time>
<desc>lat.=44.633354, lon.=33.764545, Alt.=153.486450m. Speed=15.588000m/h.</desc>
<speed>4.330000</speed>
</trkpt>
<trkpt lat="44.633797" lon="33.763191">
<ele>160.7</ele>
<time>2011-10-10T14:13:33Z</time>
<desc>lat.=44.633797, lon.=33.763191, Alt.=154.123169m. Speed=15.876000m/h.</desc>
<speed>4.410000</speed>
</trkpt>
<trkpt lat="44.633495" lon="33.761578">
<ele>163.3</ele>
<time>2011-10-10T14:14:03Z</time>
<desc>lat.=44.633495, lon.=33.761578, Alt.=154.443481m. Speed=16.524000m/h.</desc>
<speed>4.590000</speed>
</trkpt>
<trkpt lat="44.631279" lon="33.757774">
<ele>170.8</ele>
<time>2011-10-10T14:15:43Z</time>
<desc>lat.=44.631279, lon.=33.757774, Alt.=158.916138m. Speed=16.128000m/h.</desc>
<speed>4.480000</speed>
</trkpt>
<trkpt lat="44.630394" lon="33.755432">
<ele>176.0</ele>
<time>2011-10-10T14:16:38Z</time>
<desc>lat.=44.630394, lon.=33.755432, Alt.=165.838013m. Speed=13.536000m/h.</desc>
<speed>3.760000</speed>
</trkpt>
<trkpt lat="44.628300" lon="33.752689">
<ele>180.4</ele>
<time>2011-10-10T14:18:18Z</time>
<desc>lat.=44.628300, lon.=33.752689, Alt.=170.240356m. Speed=8.856000m/h.</desc>
<speed>2.460000</speed>
</trkpt>
<trkpt lat="44.626614" lon="33.749409">
<ele>189.4</ele>
<time>2011-10-10T14:21:23Z</time>
<desc>lat.=44.626614, lon.=33.749409, Alt.=178.810669m. Speed=0.000000m/h.</desc>
<speed>0.000000</speed>
</trkpt>
<trkpt lat="44.626236" lon="33.748360">
<ele>182.7</ele>
<time>2011-10-10T14:22:28Z</time>
<desc>lat.=44.626236, lon.=33.748360, Alt.=170.861450m. Speed=33.119999m/h.</desc>
<speed>9.200000</speed>
</trkpt>
<trkpt lat="44.624756" lon="33.745827">
<ele>175.7</ele>
<time>2011-10-10T14:23:08Z</time>
<desc>lat.=44.624756, lon.=33.745827, Alt.=163.576294m. Speed=11.916000m/h.</desc>
<speed>3.310000</speed>
</trkpt>
<trkpt lat="44.624611" lon="33.744511">
<ele>181.4</ele>
<time>2011-10-10T14:23:43Z</time>
<desc>lat.=44.624611, lon.=33.744511, Alt.=164.548950m. Speed=11.664000m/h.</desc>
<speed>3.240000</speed>
</trkpt>
<trkpt lat="44.624283" lon="33.743546">
<ele>178.6</ele>
<time>2011-10-10T14:24:08Z</time>
<desc>lat.=44.624283, lon.=33.743546, Alt.=165.568481m. Speed=9.828000m/h.</desc>
<speed>2.730000</speed>
</trkpt>
<trkpt lat="44.624062" lon="33.741116">
<ele>176.5</ele>
<time>2011-10-10T14:25:08Z</time>
<desc>lat.=44.624062, lon.=33.741116, Alt.=163.982544m. Speed=16.848000m/h.</desc>
<speed>4.680000</speed>
</trkpt>
<trkpt lat="44.623894" lon="33.740589">
<ele>176.6</ele>
<time>2011-10-10T14:25:23Z</time>
<desc>lat.=44.623894, lon.=33.740589, Alt.=164.572388m. Speed=7.416000m/h.</desc>
<speed>2.060000</speed>
</trkpt>
<trkpt lat="44.622620" lon="33.739674">
<ele>181.9</ele>
<time>2011-10-10T14:26:53Z</time>
<desc>lat.=44.622620, lon.=33.739674, Alt.=165.431763m. Speed=14.148000m/h.</desc>
<speed>3.930000</speed>
</trkpt>
<trkpt lat="44.621662" lon="33.738708">
<ele>180.3</ele>
<time>2011-10-10T14:27:28Z</time>
<desc>lat.=44.621662, lon.=33.738708, Alt.=167.255981m. Speed=10.404000m/h.</desc>
<speed>2.890000</speed>
</trkpt>
<trkpt lat="44.621021" lon="33.737549">
<ele>180.0</ele>
<time>2011-10-10T14:28:38Z</time>
<desc>lat.=44.621021, lon.=33.737549, Alt.=164.486450m. Speed=5.400000m/h.</desc>
<speed>1.500000</speed>
</trkpt>
<trkpt lat="44.619568" lon="33.737404">
<ele>183.7</ele>
<time>2011-10-10T14:29:28Z</time>
<desc>lat.=44.619568, lon.=33.737404, Alt.=167.978638m. Speed=17.388000m/h.</desc>
<speed>4.830000</speed>
</trkpt>
<trkpt lat="44.618073" lon="33.737530">
<ele>190.7</ele>
<time>2011-10-10T14:30:03Z</time>
<desc>lat.=44.618073, lon.=33.737530, Alt.=173.849731m. Speed=14.220000m/h.</desc>
<speed>3.950000</speed>
</trkpt>
<trkpt lat="44.617386" lon="33.737827">
<ele>189.7</ele>
<time>2011-10-10T14:30:28Z</time>
<desc>lat.=44.617386, lon.=33.737827, Alt.=176.236450m. Speed=11.412000m/h.</desc>
<speed>3.170000</speed>
</trkpt>
<trkpt lat="44.616505" lon="33.737801">
<ele>193.7</ele>
<time>2011-10-10T14:32:18Z</time>
<desc>lat.=44.616505, lon.=33.737801, Alt.=178.584106m. Speed=2.304000m/h.</desc>
<speed>0.640000</speed>
</trkpt>
<trkpt lat="44.616341" lon="33.738079">
<ele>193.9</ele>
<time>2011-10-10T14:34:13Z</time>
<desc>lat.=44.616341, lon.=33.738079, Alt.=177.400513m. Speed=1.080000m/h.</desc>
<speed>0.300000</speed>
</trkpt>
<trkpt lat="44.616459" lon="33.737797">
<ele>194.3</ele>
<time>2011-10-10T14:36:13Z</time>
<desc>lat.=44.616459, lon.=33.737797, Alt.=178.705200m. Speed=0.000000m/h.</desc>
<speed>0.000000</speed>
</trkpt>
<trkpt lat="44.615078" lon="33.736732">
<ele>202.3</ele>
<time>2011-10-10T14:38:48Z</time>
<desc>lat.=44.615078, lon.=33.736732, Alt.=183.357544m. Speed=6.516000m/h.</desc>
<speed>1.810000</speed>
</trkpt>
<trkpt lat="44.614590" lon="33.737083">
<ele>210.6</ele>
<time>2011-10-10T14:39:48Z</time>
<desc>lat.=44.614590, lon.=33.737083, Alt.=185.138794m. Speed=1.584000m/h.</desc>
<speed>0.440000</speed>
</trkpt>
<trkpt lat="44.614853" lon="33.736908">
<ele>206.4</ele>
<time>2011-10-10T14:40:13Z</time>
<desc>lat.=44.614853, lon.=33.736908, Alt.=188.615356m. Speed=3.420000m/h.</desc>
<speed>0.950000</speed>
</trkpt>
</trkseg>
</trk>
</gpx>